• Join FlightAware (Why Join?)
  • Login
  • US Flag 
07:43PM EST


 

Airport Tracker/Info


-or-


 

Live Flight TrackerFlight Track Log ✈ BMA946 ✈ 17-Apr-2012 ✈ EDDF / FRA - EGCC / MAN

Flight Track Log - Related Links

Times and Time Zones

All times are in EDT time to prevent confusion due to time zone crossing. See the BMA946 flight status page for this flight to view local times or setup timezone preferences in your user account.

Time Position Orientation Groundspeed Altitude Reporting Facility
EDT Latitude Longitude Course Direction KTS MPH feet Rate Location/Type
11:06AM 50.0394 8.5088 301° West  Level Estimated
11:07AM 50.0914 8.3714 300° West  Level Estimated
11:08AM 50.1432 8.2336 300° West  Level Estimated
11:09AM 50.1948 8.0956 300° West  Level Estimated
11:10AM 50.2463 7.9572 300° West  Level Estimated
11:11AM 50.2976 7.8186 300° West  Level Estimated
11:12AM 50.3487 7.6796 300° West  Level Estimated
11:13AM 50.3996 7.5404 300° West  Level Estimated
11:14AM 50.4504 7.4008 300° West  Level Estimated
11:15AM 50.5011 7.2610 300° West  Level Estimated
11:16AM 50.5515 7.1208 299° West  Level Estimated
11:17AM 50.6018 6.9804 299° West  Level Estimated
11:18AM 50.6520 6.8397 299° West  Level Estimated
11:19AM 50.7019 6.6986 299° West  Level Estimated
11:20AM 50.7517 6.5573 299° West  Level Estimated
11:21AM 50.8013 6.4156 299° West  Level Estimated
11:22AM 50.8507 6.2737 299° West  Level Estimated
11:23AM 50.9000 6.1314 299° West  Level Estimated
11:24AM 50.9491 5.9889 299° West  Level Estimated
11:25AM 50.9980 5.8460 298° West  Level Estimated
11:26AM 51.0468 5.7029 298° West  Level Estimated
11:27AM 51.0953 5.5594 298° West  Level Estimated
11:28AM 51.1437 5.4157 298° West  Level Estimated
11:29AM 51.1920 5.2716 298° West  Level Estimated
11:30AM 51.2400 5.1273 298° West  Level Estimated
11:31AM 51.2879 4.9826 298° West  Level Estimated
11:32AM 51.3356 4.8377 298° West  Level Estimated
11:33AM 51.3831 4.6924 298° West  Level Estimated
11:34AM 51.4304 4.5469 297° West  Level Estimated
11:35AM 51.4776 4.4010 297° West  Level Estimated
11:36AM 51.5245 4.2548 297° West  Level Estimated
11:37AM 51.5713 4.1084 297° West  Level Estimated
11:38AM 51.6179 3.9616 297° West  Level Estimated
11:39AM 51.6643 3.8146 297° West  Level Estimated
11:40AM 51.7106 3.6672 297° West  Level Estimated
11:41AM 51.7566 3.5195 297° West  Level Estimated
11:42AM 51.8025 3.3716 297° West  Level Estimated
11:43AM 51.8482 3.2233 296° West  Level Estimated
11:44AM 51.8937 3.0747 296° West  Level Estimated
11:45AM 51.9389 2.9258 296° West  Level Estimated
11:46AM 51.9841 2.7767 296° West  Level Estimated
11:47AM 52.0290 2.6272 296° West  Level Estimated
11:48AM 52.0737 2.4774 296° West  Level Estimated
11:49AM 52.1183 2.3274 296° West  Level Estimated
11:50AM 52.1627 2.1770 296° West  Level Estimated
11:51AM 52.2068 2.0263 295° West  Level Estimated
11:52AM 52.2508 1.8753 295° West  Level Estimated
11:53AM 52.2946 1.7241 295° West  Level Estimated
11:54AM 52.3382 1.5725 295° West  Level Estimated
11:55AM 52.3815 1.4207 295° West  Level Estimated
11:56AM 52.4248 1.2685 295° West  Level Estimated
11:57AM 52.4678 1.1160 295° West  Level Estimated
11:58AM 52.5106 0.9633 295° West  Level Estimated
11:59AM 52.5532 0.8102 295° West  Level Estimated
12:00PM 52.5956 0.6569 294° West  Level Estimated
12:01PM 52.6378 0.5032 294° West  Level Estimated
12:02PM 52.6798 0.3493 294° West  Level Estimated
12:03PM 52.7216 0.1950 294° West  Level Estimated
12:04PM 52.7632 0.0405 294° West  Level Estimated
12:05PM 52.8046 -0.1143 294° West  Level Estimated
12:06PM 52.8458 -0.2695 294° West  Level Estimated
12:07PM 52.8868 -0.4249 294° West  Level Estimated
12:08PM 52.9276 -0.5806 293° West  Level Estimated
12:09PM 52.9682 -0.7366 293° West  Level Estimated
12:10PM 53.0086 -0.8929 293° West  Level Estimated
12:11PM 53.0488 -1.0495 293° West  Level Estimated
12:12PM 53.0888 -1.2063 293° West  Level Estimated
12:13PM 53.1286 -1.3635 293° West  Level Estimated
12:14PM 53.1681 -1.5210 293° West  Level Estimated
12:15PM 53.2075 -1.6787 293° West  Level Estimated
12:16PM 53.2467 -1.8368 292° West  Level Estimated
12:17PM 53.2856 -1.9951 292° West  Level Estimated
12:18PM 53.3243 -2.1537 292° West  Level Estimated
12:19PM 53.3629 -2.3126 112° Southeast  Level Estimated
12:20PM 53.3243 -2.1537 292° West  Level Estimated
12:21PM 53.3629 -2.3126 112° Southeast  Level Estimated
12:22PM 53.3243 -2.1537 292° West  Level Estimated
12:23PM 53.3629 -2.3126 112° Southeast  Level Estimated
12:24PM 53.3243 -2.1537 292° West  Level Estimated
12:25PM 53.3629 -2.3126 112° Southeast  Level Estimated
12:26PM 53.3243 -2.1537 292° West  Level Estimated
12:27PM 53.3629 -2.3126 112° Southeast  Level Estimated
12:28PM 53.3243 -2.1537 292° West  Level Estimated
12:29PM 53.3629 -2.3126 112° Southeast  Level Estimated
12:30PM 53.3243 -2.1537 292° West  Level Estimated
12:31PM 53.3629 -2.3126 112° Southeast  Level Estimated
12:32PM 53.3243 -2.1537 292° West  Level Estimated
12:33PM 53.3629 -2.3126 292° West  Level Estimated